Time;durP1;ratioP1;P1;durP2;ratioP2;P2;SDS_P1;SDS_P2;PMS_P1;PMS_P2;Temp;Humidity;BMP_temperature;BMP_pressure;BME280_temperature;BME280_humidity;BME280_pressure;Samples;Min_cycle;Max_cycle;Signal;HPM_P1;HPM_P2
2022/06/22 00:02:19;;;;;;;6.32;3.22;;;24.10;51.40;;;;;;5066423;28;20047;-74
2022/06/22 00:04:48;;;;;;;5.05;3.10;;;24.10;51.50;;;;;;5071843;28;20069;-73
2022/06/22 00:07:13;;;;;;;4.75;3.33;;;24.00;51.30;;;;;;5061462;28;20034;-73
2022/06/22 00:09:41;;;;;;;3.78;3.00;;;23.90;51.00;;;;;;5070955;28;20033;-75
2022/06/22 00:12:18;;;;;;;4.00;3.20;;;23.90;50.80;;;;;;5061314;28;20025;-74
2022/06/22 00:14:48;;;;;;;5.65;2.90;;;23.90;51.00;;;;;;5062782;28;20025;-75
2022/06/22 00:17:22;;;;;;;3.88;3.22;;;23.80;51.00;;;;;;5069967;28;20028;-75
2022/06/22 00:19:48;;;;;;;6.13;3.08;;;23.70;51.60;;;;;;5065311;28;20483;-75
2022/06/22 00:22:23;;;;;;;4.45;3.25;;;23.90;51.60;;;;;;5072571;28;20050;-74
2022/06/22 00:25:12;;;;;;;4.80;3.20;;;23.90;51.80;;;;;;5071415;28;20032;-75
2022/06/22 00:27:38;;;;;;;5.53;3.60;;;23.70;51.70;;;;;;5061343;28;20107;-75
2022/06/22 00:30:15;;;;;;;5.13;3.03;;;23.90;51.40;;;;;;5068738;28;20031;-73
2022/06/22 00:33:11;;;;;;;9.43;6.43;;;24.00;51.40;;;;;;5063934;28;20032;-75
2022/06/22 00:35:42;;;;;;;5.57;3.28;;;24.00;51.50;;;;;;5073063;28;20025;-74
2022/06/22 00:38:38;;;;;;;4.60;3.33;;;23.90;51.60;;;;;;5061343;28;20119;-72
2022/06/22 00:41:24;;;;;;;8.75;3.83;;;23.70;52.10;;;;;;5064419;28;20045;-73
2022/06/22 00:43:52;;;;;;;4.55;3.20;;;23.50;52.80;;;;;;5069215;28;20366;-74
2022/06/22 00:46:22;;;;;;;4.60;3.30;;;23.50;53.30;;;;;;5067505;28;20033;-73
2022/06/22 00:48:51;;;;;;;4.65;3.50;;;23.20;54.00;;;;;;5069622;28;20375;-75
2022/06/22 00:51:36;;;;;;;4.90;3.40;;;23.20;54.20;;;;;;5063136;28;20033;-76
2022/06/22 00:54:05;;;;;;;5.32;3.80;;;23.30;54.30;;;;;;5072133;28;20112;-75
2022/06/22 00:56:36;;;;;;;4.93;3.72;;;23.50;54.40;;;;;;5066960;28;20116;-74
2022/06/22 00:59:17;;;;;;;4.97;4.07;;;23.40;54.40;;;;;;5070647;28;20110;-75
2022/06/22 01:01:43;;;;;;;8.52;4.40;;;23.30;54.90;;;;;;5070482;28;20025;-75
2022/06/22 01:04:25;;;;;;;9.70;4.50;;;23.40;54.80;;;;;;5069436;28;20033;-75
2022/06/22 01:07:03;;;;;;;6.82;4.38;;;23.40;54.80;;;;;;5072047;28;20043;-75
2022/06/22 01:09:44;;;;;;;5.88;4.22;;;23.40;54.80;;;;;;5052138;28;20040;-75
2022/06/22 01:12:28;;;;;;;5.00;4.15;;;23.40;54.70;;;;;;5060695;28;20025;-75
2022/06/22 01:15:15;;;;;;;6.60;4.00;;;23.50;54.70;;;;;;5064407;28;20025;-74
2022/06/22 01:17:48;;;;;;;6.53;4.05;;;23.40;54.60;;;;;;5061813;28;20123;-73
2022/06/22 01:20:27;;;;;;;5.97;4.00;;;23.50;54.50;;;;;;5064161;28;20036;-73
2022/06/22 01:23:11;;;;;;;5.82;3.90;;;23.40;54.50;;;;;;5058780;28;20025;-73
2022/06/22 01:25:49;;;;;;;5.28;3.78;;;23.50;54.20;;;;;;5056319;28;20064;-74
2022/06/22 01:28:15;;;;;;;4.95;3.70;;;23.50;53.80;;;;;;5070335;28;20025;-73
2022/06/22 01:30:44;;;;;;;4.75;3.53;;;23.60;53.70;;;;;;5071407;28;20030;-73
2022/06/22 01:33:33;;;;;;;5.05;3.65;;;23.60;54.00;;;;;;5069428;28;20025;-72
2022/06/22 01:36:02;;;;;;;5.85;3.90;;;23.50;53.30;;;;;;5067953;28;20165;-73
2022/06/22 01:38:30;;;;;;;4.28;3.35;;;23.40;54.00;;;;;;5069796;28;20022;-73
2022/06/22 01:41:26;;;;;;;5.00;3.58;;;23.40;53.60;;;;;;5069981;28;20032;-72
2022/06/22 01:44:12;;;;;;;8.55;3.40;;;23.60;53.20;;;;;;5070796;28;20040;-73
2022/06/22 01:46:48;;;;;;;4.07;3.22;;;23.70;52.90;;;;;;5070310;28;20383;-75
2022/06/22 01:49:29;;;;;;;4.68;3.50;;;23.60;53.00;;;;;;5066057;28;20457;-75
2022/06/22 01:52:12;;;;;;;5.57;3.47;;;23.70;52.80;;;;;;5068376;28;20033;-75
2022/06/22 01:54:47;;;;;;;4.93;3.30;;;23.80;52.50;;;;;;5032869;28;20369;-75
2022/06/22 01:57:22;;;;;;;4.28;3.50;;;23.90;52.40;;;;;;5052168;28;20021;-75
2022/06/22 01:59:56;;;;;;;4.65;3.33;;;24.00;52.50;;;;;;5057991;28;20094;-75
2022/06/22 02:02:28;;;;;;;4.35;3.10;;;24.00;52.20;;;;;;5049708;28;20033;-76
2022/06/22 02:05:10;;;;;;;4.07;3.08;;;23.80;52.40;;;;;;5063917;28;20030;-75
2022/06/22 02:08:20;;;;;;;4.65;3.60;;;23.80;52.60;;;;;;5061465;28;20021;-75
2022/06/22 02:10:50;;;;;;;5.03;3.28;;;23.70;52.60;;;;;;5049103;28;20488;-75
2022/06/22 02:13:42;;;;;;;4.50;3.50;;;23.70;52.50;;;;;;5086063;28;20040;-75
2022/06/22 02:16:25;;;;;;;5.55;3.40;;;23.70;52.40;;;;;;5087850;28;20039;-73
2022/06/22 02:19:09;;;;;;;4.50;3.38;;;23.60;52.60;;;;;;5072643;28;20071;-74
2022/06/22 02:21:49;;;;;;;7.22;3.38;;;23.60;52.40;;;;;;5069976;28;20040;-72
2022/06/22 02:24:38;;;;;;;5.68;3.97;;;23.50;52.90;;;;;;5073373;28;20513;-73
2022/06/22 02:27:17;;;;;;;5.88;3.75;;;23.20;53.70;;;;;;5088261;28;20044;-75
2022/06/22 02:29:48;;;;;;;5.05;3.13;;;23.00;54.10;;;;;;5076089;28;20554;-73
2022/06/22 02:32:38;;;;;;;5.25;3.42;;;23.00;54.10;;;;;;5057556;28;20036;-74
2022/06/22 02:35:08;;;;;;;5.45;3.22;;;22.90;54.00;;;;;;5079198;28;20039;-72
2022/06/22 02:37:40;;;;;;;4.15;3.10;;;23.00;54.20;;;;;;5068102;28;20025;-71
2022/06/22 02:40:11;;;;;;;4.60;3.30;;;23.10;54.00;;;;;;5068067;28;20059;-72
2022/06/22 02:45:23;;;;;;;5.07;3.50;;;22.80;54.70;;;;;;5088625;28;20521;-73
2022/06/22 02:47:58;;;;;;;6.18;3.50;;;22.60;55.20;;;;;;5075508;28;20033;-74
2022/06/22 02:50:33;;;;;;;6.35;3.88;;;22.60;55.20;;;;;;5075858;28;20024;-74
2022/06/22 02:53:05;;;;;;;4.28;3.20;;;22.80;55.20;;;;;;5064655;28;20078;-75
2022/06/22 02:55:35;;;;;;;5.55;3.60;;;23.00;54.80;;;;;;5071330;28;20123;-75
2022/06/22 02:58:02;;;;;;;5.85;3.40;;;23.10;54.50;;;;;;5073051;28;20032;-74
2022/06/22 03:00:35;;;;;;;4.38;3.20;;;23.20;54.50;;;;;;5070350;28;20443;-73
2022/06/22 03:03:07;;;;;;;5.85;3.70;;;23.20;54.30;;;;;;5071526;28;20029;-72
2022/06/22 03:05:35;;;;;;;4.78;3.55;;;23.20;54.50;;;;;;5074847;28;20067;-74
2022/06/22 03:08:03;;;;;;;4.60;3.33;;;23.20;54.40;;;;;;5074549;28;20033;-72
2022/06/22 03:10:43;;;;;;;5.22;3.45;;;23.10;54.20;;;;;;5073448;28;20035;-72
2022/06/22 03:13:16;;;;;;;7.10;3.40;;;22.90;54.60;;;;;;5053448;28;20048;-73
2022/06/22 03:15:42;;;;;;;6.03;3.30;;;22.60;55.30;;;;;;5070919;28;20437;-76
2022/06/22 03:18:13;;;;;;;5.18;3.60;;;22.60;55.80;;;;;;5063286;28;20024;-77
2022/06/22 03:20:44;;;;;;;;;;;22.40;56.00;;;;;;5071975;28;20036;-78
2022/06/22 03:23:23;;;;;;;4.47;3.47;;;22.60;56.40;;;;;;5073816;28;20397;-76
2022/06/22 03:26:00;;;;;;;5.68;3.58;;;22.80;55.70;;;;;;5073777;28;20062;-76
2022/06/22 03:28:32;;;;;;;6.63;3.80;;;22.90;55.50;;;;;;5073831;28;20028;-75
2022/06/22 03:31:03;;;;;;;4.13;3.13;;;23.00;55.20;;;;;;5059754;28;20033;-75
2022/06/22 03:33:37;;;;;;;4.85;3.20;;;23.10;55.20;;;;;;5068142;28;20033;-76
2022/06/22 03:36:11;;;;;;;4.95;3.50;;;23.00;55.70;;;;;;5055939;28;20425;-77
2022/06/22 03:38:46;;;;;;;5.05;3.35;;;23.10;55.60;;;;;;5053862;28;20032;-74
2022/06/22 03:41:17;;;;;;;5.05;3.40;;;23.10;55.60;;;;;;5055785;28;20036;-74
2022/06/22 03:43:49;;;;;;;4.80;3.47;;;23.10;55.10;;;;;;5074930;28;20524;-74
2022/06/22 03:46:33;;;;;;;5.35;3.30;;;23.10;55.10;;;;;;5070961;28;20107;-75
2022/06/22 03:49:05;;;;;;;5.25;3.70;;;23.20;55.00;;;;;;5073492;28;20082;-75
2022/06/22 03:51:39;;;;;;;4.13;3.40;;;23.20;55.50;;;;;;5070904;28;20025;-75
2022/06/22 03:54:17;;;;;;;4.68;3.42;;;23.30;55.70;;;;;;5057624;28;20034;-75
2022/06/22 03:56:50;;;;;;;6.15;3.65;;;23.40;55.50;;;;;;5068391;28;20044;-77
2022/06/22 03:59:15;;;;;;;4.78;3.30;;;23.50;55.60;;;;;;5073167;28;20028;-75
2022/06/22 04:01:42;;;;;;;4.38;3.28;;;23.40;55.00;;;;;;5059596;28;20035;-75
2022/06/22 04:04:09;;;;;;;4.32;3.40;;;23.30;55.60;;;;;;5052993;28;20108;-76
2022/06/22 04:06:40;;;;;;;4.43;3.33;;;23.40;56.70;;;;;;5054329;28;20112;-74
2022/06/22 04:09:13;;;;;;;4.65;3.63;;;23.60;56.70;;;;;;5060126;28;20040;-75
2022/06/22 04:12:17;;;;;;;5.13;3.47;;;23.60;56.60;;;;;;5072083;28;20078;-76
2022/06/22 04:14:45;;;;;;;4.75;3.55;;;23.60;56.30;;;;;;5051882;28;20029;-76
2022/06/22 04:17:25;;;;;;;6.10;3.30;;;23.70;56.50;;;;;;5051714;28;20076;-74
2022/06/22 04:20:04;;;;;;;3.90;3.13;;;23.90;56.00;;;;;;5055249;28;20099;-76
2022/06/22 04:22:34;;;;;;;4.38;3.58;;;24.00;55.90;;;;;;5033637;28;20669;-72
2022/06/22 04:25:27;;;;;;;4.35;3.40;;;24.30;56.00;;;;;;5031155;28;20036;-74
2022/06/22 04:27:55;;;;;;;4.75;3.38;;;24.50;55.60;;;;;;5049647;28;20033;-75
2022/06/22 04:30:26;;;;;;;4.45;3.15;;;24.50;55.10;;;;;;5050234;28;20033;-75
2022/06/22 04:33:19;;;;;;;5.38;3.05;;;24.40;54.90;;;;;;5051487;28;20047;-73
2022/06/22 04:36:01;;;;;;;4.90;3.00;;;24.40;54.80;;;;;;5051752;28;20439;-76
2022/06/22 04:38:36;;;;;;;4.57;2.97;;;24.60;54.60;;;;;;5035202;28;20052;-75
2022/06/22 04:41:07;;;;;;;5.60;3.50;;;24.70;54.00;;;;;;5051585;28;20037;-75
2022/06/22 04:43:34;;;;;;;4.53;3.30;;;24.70;54.30;;;;;;5032697;28;20455;-75
2022/06/22 04:46:00;;;;;;;5.45;3.38;;;24.80;54.30;;;;;;5051860;28;20564;-75
2022/06/22 04:48:35;;;;;;;4.25;3.10;;;24.90;53.70;;;;;;5052332;28;20547;-74
2022/06/22 04:51:03;;;;;;;5.13;3.42;;;24.70;53.80;;;;;;5053399;28;20033;-74
2022/06/22 04:53:33;;;;;;;4.40;3.22;;;24.70;54.10;;;;;;5053627;28;20052;-74
2022/06/22 04:56:03;;;;;;;4.65;3.20;;;24.70;53.30;;;;;;5053057;28;20056;-77
2022/06/22 04:58:51;;;;;;;6.88;3.17;;;25.00;53.10;;;;;;5063272;28;20028;-75
2022/06/22 05:01:25;;;;;;;5.85;3.00;;;25.10;52.00;;;;;;5070257;28;20040;-77
2022/06/22 05:04:13;;;;;;;5.15;3.90;;;25.00;52.80;;;;;;5071985;28;20508;-73
2022/06/22 05:07:00;;;;;;;4.25;2.90;;;24.80;52.30;;;;;;5032931;28;20026;-78
2022/06/22 05:09:49;;;;;;;5.25;3.00;;;24.90;52.60;;;;;;5033075;28;20057;-75
2022/06/22 05:12:19;;;;;;;4.07;2.90;;;24.90;52.40;;;;;;5031955;28;20096;-75
2022/06/22 05:14:45;;;;;;;5.85;2.83;;;25.10;52.10;;;;;;5048607;28;20030;-79
2022/06/22 05:17:34;;;;;;;4.38;2.80;;;25.30;52.10;;;;;;5032079;28;20037;-75
2022/06/22 05:20:15;;;;;;;4.97;2.90;;;25.10;51.70;;;;;;5048463;28;20120;-75
2022/06/22 05:22:40;;;;;;;4.22;2.67;;;25.10;51.60;;;;;;5048482;28;20025;-78
2022/06/22 05:25:10;;;;;;;4.78;2.67;;;25.30;51.70;;;;;;5055372;28;20541;-77
2022/06/22 05:27:59;;;;;;;4.70;3.30;;;25.30;51.60;;;;;;5032490;28;20022;-78
2022/06/22 05:30:29;;;;;;;4.90;2.60;;;25.40;51.40;;;;;;5033499;28;20017;-77
2022/06/22 05:32:59;;;;;;;4.43;2.72;;;25.40;51.30;;;;;;5032629;28;20025;-78
2022/06/22 05:35:31;;;;;;;;;;;25.70;50.90;;;;;;5033948;28;20500;-78
2022/06/22 05:37:58;;;;;;;4.60;2.65;;;25.70;50.60;;;;;;5031643;28;19947;-79
2022/06/22 05:40:28;;;;;;;5.68;2.72;;;25.80;50.90;;;;;;5031662;28;20045;-77
2022/06/22 05:42:55;;;;;;;3.80;2.60;;;25.90;50.90;;;;;;5033124;28;20388;-75
2022/06/22 05:45:31;;;;;;;5.97;2.63;;;25.90;50.90;;;;;;5031250;28;20383;-74
2022/06/22 05:47:57;;;;;;;6.35;2.70;;;25.90;50.80;;;;;;5031491;28;20022;-78
2022/06/22 05:50:43;;;;;;;3.42;2.50;;;26.10;50.40;;;;;;5032749;28;20029;-74
2022/06/22 05:53:17;;;;;;;6.35;2.50;;;26.10;50.30;;;;;;5031877;28;20025;-78
2022/06/22 05:55:55;;;;;;;4.03;2.70;;;26.20;50.20;;;;;;5032694;28;20087;-74
2022/06/22 05:58:53;;;;;;;4.05;2.53;;;26.40;50.40;;;;;;5032810;28;20111;-75
2022/06/22 06:01:42;;;;;;;4.85;2.50;;;26.80;50.30;;;;;;5050115;28;20045;-74
2022/06/22 06:04:29;;;;;;;3.78;2.60;;;27.00;49.90;;;;;;5050551;28;20021;-74
2022/06/22 06:07:00;;;;;;;4.65;2.80;;;27.20;49.50;;;;;;5050303;28;20025;-83
2022/06/22 06:09:28;;;;;;;5.30;2.60;;;27.30;49.10;;;;;;5033950;28;20049;-80
2022/06/22 06:12:05;;;;;;;4.20;2.60;;;26.90;49.30;;;;;;5033692;28;20072;-79
2022/06/22 06:14:37;;;;;;;5.15;2.30;;;27.20;49.80;;;;;;5050452;28;20423;-76
2022/06/22 06:17:14;;;;;;;4.65;2.40;;;27.40;49.10;;;;;;5050130;28;20480;-77
2022/06/22 06:19:42;;;;;;;4.45;2.40;;;27.30;49.50;;;;;;5050256;28;20375;-75
2022/06/22 06:22:10;;;;;;;5.22;2.72;;;27.30;49.50;;;;;;5053085;28;20132;-78
2022/06/22 06:27:55;;;;;;;7.18;2.42;;;27.60;49.20;;;;;;5054829;28;20079;-75
2022/06/22 06:30:25;;;;;;;5.07;2.97;;;27.60;49.10;;;;;;5054164;28;20060;-77
2022/06/22 06:33:05;;;;;;;5.53;2.92;;;27.70;49.50;;;;;;5054062;28;20033;-81
2022/06/22 06:35:40;;;;;;;;;;;27.70;49.00;;;;;;5037618;28;20025;-77
2022/06/22 06:38:24;;;;;;;4.78;2.53;;;27.70;49.50;;;;;;5041081;28;19927;-76
2022/06/22 06:41:15;;;;;;;5.38;3.25;;;27.50;49.30;;;;;;5036126;28;20030;-77
2022/06/22 06:44:16;;;;;;;3.60;2.40;;;27.50;49.90;;;;;;5034926;28;20029;-75
2022/06/22 06:46:46;;;;;;;4.07;2.50;;;27.60;49.40;;;;;;5035726;28;20033;-77
2022/06/22 06:49:20;;;;;;;3.80;2.50;;;27.80;49.80;;;;;;5034950;28;20021;-77
2022/06/22 06:51:53;;;;;;;5.28;2.53;;;27.80;49.30;;;;;;5034800;28;20388;-77
2022/06/22 06:54:22;;;;;;;4.82;2.60;;;28.00;49.60;;;;;;5036032;28;20033;-82
2022/06/22 06:56:56;;;;;;;6.68;2.67;;;28.20;49.60;;;;;;5036164;28;20550;-77
2022/06/22 06:59:27;;;;;;;4.32;2.60;;;28.30;49.00;;;;;;5034665;28;20072;-77
2022/06/22 07:01:53;;;;;;;4.03;2.45;;;28.20;48.40;;;;;;5034765;28;20013;-85
2022/06/22 07:04:29;;;;;;;5.28;2.70;;;28.00;48.90;;;;;;5034361;28;20455;-74
2022/06/22 07:07:07;;;;;;;4.22;2.70;;;28.10;49.40;;;;;;5034731;28;20036;-75
2022/06/22 07:09:37;;;;;;;4.88;2.50;;;28.40;48.70;;;;;;5034813;28;20401;-79
2022/06/22 07:12:33;;;;;;;5.32;2.97;;;28.60;48.30;;;;;;5033709;28;20384;-75
2022/06/22 07:15:02;;;;;;;4.00;2.50;;;28.50;48.50;;;;;;5035507;28;20029;-76
2022/06/22 07:17:31;;;;;;;3.83;2.20;;;28.50;48.70;;;;;;5035597;28;20032;-76
2022/06/22 07:20:18;;;;;;;3.25;2.28;;;28.60;48.40;;;;;;5035676;28;20120;-76
2022/06/22 07:22:51;;;;;;;4.95;2.38;;;28.40;49.40;;;;;;5034817;28;20026;-80
2022/06/22 07:25:20;;;;;;;4.05;2.40;;;28.30;49.60;;;;;;5034138;28;20427;-82
2022/06/22 07:28:01;;;;;;;3.67;2.30;;;28.60;49.20;;;;;;5035399;28;20033;-77
2022/06/22 07:30:35;;;;;;;4.03;2.35;;;28.60;49.20;;;;;;5034253;28;20029;-76
2022/06/22 07:33:13;;;;;;;3.53;2.30;;;28.30;49.20;;;;;;5034702;28;20026;-76
2022/06/22 07:35:47;;;;;;;4.40;2.50;;;28.30;50.30;;;;;;5035188;28;20030;-76
2022/06/22 07:38:31;;;;;;;4.45;2.40;;;28.70;49.90;;;;;;5034961;28;20013;-81
2022/06/22 07:43:44;;;;;;;7.82;2.40;;;29.10;48.80;;;;;;5035358;28;20036;-80
2022/06/22 07:46:17;;;;;;;6.80;2.60;;;29.10;48.70;;;;;;5034127;28;20075;-79
2022/06/22 07:48:45;;;;;;;5.20;2.47;;;29.20;48.50;;;;;;5034783;28;20105;-75
2022/06/22 07:51:22;;;;;;;4.43;2.30;;;29.40;48.90;;;;;;5034781;28;20431;-77
2022/06/22 07:54:11;;;;;;;3.53;2.20;;;29.70;48.70;;;;;;5033493;28;20025;-82
2022/06/22 07:56:51;;;;;;;3.30;2.10;;;29.90;47.90;;;;;;5033669;28;20080;-77
2022/06/22 07:59:32;;;;;;;11.57;2.65;;;29.90;47.20;;;;;;5034488;28;20093;-77
2022/06/22 08:02:01;;;;;;;6.40;2.30;;;29.90;47.20;;;;;;5034958;28;20033;-77
2022/06/22 08:04:41;;;;;;;5.17;2.20;;;29.90;46.50;;;;;;5034682;28;20480;-84
2022/06/22 08:07:12;;;;;;;3.30;2.00;;;30.10;46.80;;;;;;5034773;28;20033;-76
2022/06/22 08:09:53;;;;;;;3.70;2.15;;;30.20;46.60;;;;;;5033502;28;20405;-76
2022/06/22 08:12:37;;;;;;;3.20;2.10;;;30.40;45.70;;;;;;5034459;28;20018;-78
2022/06/22 08:15:07;;;;;;;4.25;2.22;;;30.30;46.50;;;;;;5033390;28;20079;-79
2022/06/22 08:17:37;;;;;;;3.58;2.20;;;30.20;45.60;;;;;;5033235;28;20464;-77
2022/06/22 08:20:04;;;;;;;3.97;2.17;;;30.10;46.50;;;;;;5033127;28;20034;-76
2022/06/22 08:22:30;;;;;;;3.47;2.08;;;30.00;44.90;;;;;;5034396;28;20033;-75
2022/06/22 08:24:57;;;;;;;4.15;2.00;;;29.70;45.20;;;;;;5033136;28;20044;-79
2022/06/22 08:27:25;;;;;;;4.45;1.90;;;29.80;45.90;;;;;;5032880;28;20037;-76
2022/06/22 08:29:53;;;;;;;3.30;2.08;;;29.90;46.10;;;;;;5032979;28;20037;-76
2022/06/22 08:32:30;;;;;;;4.38;2.10;;;30.20;45.20;;;;;;5033093;28;20143;-78
2022/06/22 08:35:00;;;;;;;3.53;2.10;;;30.30;45.90;;;;;;5034120;28;20014;-81
2022/06/22 08:37:36;;;;;;;3.03;1.90;;;30.50;45.40;;;;;;5034158;28;20017;-77
2022/06/22 08:40:51;;;;;;;3.53;1.90;;;30.60;45.50;;;;;;5032590;28;20037;-76
2022/06/22 08:44:07;;;;;;;4.03;2.10;;;30.70;45.20;;;;;;5031003;28;20029;-76
2022/06/22 08:46:46;;;;;;;3.03;1.90;;;30.70;44.90;;;;;;4972724;28;20039;-78
2022/06/22 08:49:27;;;;;;;4.88;2.08;;;30.80;44.90;;;;;;4973012;28;20023;-82
2022/06/22 08:52:25;;;;;;;3.40;1.90;;;31.10;45.60;;;;;;4972650;28;20061;-77
2022/06/22 08:55:07;;;;;;;3.35;2.00;;;31.00;44.20;;;;;;4972811;28;20038;-81
2022/06/22 08:57:58;;;;;;;5.13;1.85;;;31.00;45.20;;;;;;4972890;28;20086;-78
2022/06/22 09:00:37;;;;;;;5.32;2.28;;;31.30;44.90;;;;;;4953103;28;20042;-80
2022/06/22 09:03:24;;;;;;;3.60;1.80;;;31.20;45.20;;;;;;4972939;28;20038;-79
2022/06/22 09:06:14;;;;;;;4.25;1.90;;;31.10;44.90;;;;;;4972775;28;20033;-79
2022/06/22 09:09:01;;;;;;;3.95;2.13;;;31.10;44.70;;;;;;4972798;28;20026;-80
2022/06/22 09:11:33;;;;;;;3.20;1.85;;;31.20;45.90;;;;;;4973079;28;20114;-77
2022/06/22 09:14:11;;;;;;;3.58;1.90;;;31.40;45.00;;;;;;4972543;28;20094;-79
2022/06/22 09:16:54;;;;;;;4.50;1.95;;;31.40;44.60;;;;;;4972585;28;20050;-84
2022/06/22 09:19:46;;;;;;;6.35;1.90;;;31.60;45.00;;;;;;4972510;28;20047;-77
2022/06/22 09:22:45;;;;;;;3.20;1.80;;;31.40;44.80;;;;;;4984680;28;20038;-76
2022/06/22 09:25:26;;;;;;;5.97;2.08;;;31.40;44.80;;;;;;5032608;28;20487;-78
2022/06/22 09:28:08;;;;;;;3.17;1.88;;;31.70;45.00;;;;;;5033399;28;20495;-79
2022/06/22 09:30:59;;;;;;;3.58;1.80;;;32.00;44.40;;;;;;5032251;28;20022;-83
2022/06/22 09:33:49;;;;;;;3.38;1.80;;;32.10;44.50;;;;;;5032034;28;20030;-78
2022/06/22 09:36:24;;;;;;;;;;;32.00;44.00;;;;;;5032434;28;20021;-83
2022/06/22 09:39:11;;;;;;;4.00;1.60;;;32.00;44.70;;;;;;5033044;28;19912;-77
2022/06/22 09:41:39;;;;;;;5.50;2.47;;;32.10;43.40;;;;;;5031658;28;20034;-78
2022/06/22 09:44:16;;;;;;;4.13;1.88;;;31.80;43.50;;;;;;5033190;28;20029;-76
2022/06/22 09:47:05;;;;;;;4.53;1.70;;;31.90;43.20;;;;;;5031902;28;20498;-77
2022/06/22 09:50:01;;;;;;;3.28;1.70;;;31.80;43.50;;;;;;5032778;28;20037;-78
2022/06/22 09:52:49;;;;;;;3.22;1.70;;;32.10;42.10;;;;;;5033081;28;20029;-78
2022/06/22 09:58:48;;;;;;;3.72;1.65;;;32.60;42.10;;;;;;5033132;28;20048;-78
2022/06/22 10:01:34;;;;;;;4.32;1.63;;;32.60;42.10;;;;;;5031207;28;20053;-77
2022/06/22 10:04:21;;;;;;;3.15;1.60;;;32.80;41.70;;;;;;5050457;28;20035;-78
2022/06/22 10:07:08;;;;;;;3.38;1.70;;;32.70;41.70;;;;;;5050515;28;20436;-77
2022/06/22 10:10:00;;;;;;;2.70;1.70;;;32.60;40.90;;;;;;5050620;28;20037;-78
2022/06/22 10:12:56;;;;;;;3.92;1.80;;;32.80;40.70;;;;;;4971891;28;20117;-80
2022/06/22 10:15:59;;;;;;;3.30;1.50;;;33.10;40.60;;;;;;4972038;28;20043;-78
2022/06/22 10:18:52;;;;;;;3.53;1.60;;;33.30;39.70;;;;;;4971869;28;20069;-77
2022/06/22 10:21:36;;;;;;;3.85;1.55;;;32.90;40.30;;;;;;4971491;28;20050;-75
2022/06/22 10:24:39;;;;;;;2.65;1.40;;;32.40;38.50;;;;;;4972184;28;20513;-82
2022/06/22 10:27:49;;;;;;;4.00;1.48;;;32.20;40.10;;;;;;4971936;28;20151;-84
2022/06/22 10:30:17;;;;;;;2.40;1.30;;;32.10;38.70;;;;;;4914166;29;20032;-81
2022/06/22 10:33:00;;;;;;;3.60;1.60;;;32.00;40.10;;;;;;4914105;29;20051;-77
2022/06/22 10:35:44;;;;;;;3.47;1.45;;;31.80;39.60;;;;;;4914722;29;20036;-79
2022/06/22 10:38:28;;;;;;;5.28;1.40;;;32.00;39.50;;;;;;4914132;29;20028;-77
2022/06/22 10:47:29;;;;;;;3.05;1.40;;;32.50;39.90;;;;;;4895390;29;20476;-90
2022/06/22 10:50:27;;;;;;;3.95;1.40;;;32.30;39.40;;;;;;4925354;29;20126;-82
2022/06/22 10:53:09;;;;;;;2.70;1.40;;;32.40;40.10;;;;;;4894899;29;20088;-79
2022/06/22 10:56:01;;;;;;;2.30;1.40;;;32.80;40.90;;;;;;4895606;29;20495;-79
2022/06/22 10:59:11;;;;;;;4.22;1.30;;;33.30;39.60;;;;;;4879995;29;20476;-77
2022/06/22 11:01:45;;;;;;;2.40;1.42;;;32.80;38.70;;;;;;4803638;29;20185;-77
2022/06/22 11:04:41;;;;;;;3.17;1.48;;;32.70;37.80;;;;;;4803484;29;20096;-77
2022/06/22 11:07:35;;;;;;;3.35;1.60;;;32.40;39.00;;;;;;4822395;29;20461;-81
2022/06/22 11:10:21;;;;;;;6.90;1.52;;;32.40;39.40;;;;;;4824877;29;20038;-79
2022/06/22 11:12:52;;;;;;;3.13;1.55;;;32.30;39.20;;;;;;4824479;29;20042;-78
2022/06/22 11:15:49;;;;;;;2.70;1.40;;;32.30;39.60;;;;;;4824823;29;20038;-87
2022/06/22 11:18:40;;;;;;;2.83;1.50;;;32.40;39.80;;;;;;4824621;29;20054;-80
2022/06/22 11:21:50;;;;;;;2.53;1.80;;;32.30;40.20;;;;;;4824286;29;20050;-78
2022/06/22 11:24:57;;;;;;;5.40;2.50;;;32.80;39.80;;;;;;4806016;29;20035;-82
2022/06/22 11:30:57;;;;;;;2.70;1.40;;;32.60;38.30;;;;;;4883790;29;20039;-79
2022/06/22 11:33:28;;;;;;;2.83;1.50;;;32.40;39.10;;;;;;4935960;29;20048;-78
2022/06/22 11:36:05;;;;;;;2.40;1.50;;;32.30;40.30;;;;;;4936136;29;20042;-77
2022/06/22 11:38:53;;;;;;;4.47;1.67;;;32.70;40.40;;;;;;4946083;29;20035;-77
2022/06/22 11:41:42;;;;;;;2.22;1.35;;;32.90;39.20;;;;;;4936113;29;20505;-77
2022/06/22 11:44:34;;;;;;;2.50;1.45;;;32.90;38.90;;;;;;4936039;29;20131;-78
2022/06/22 11:47:33;;;;;;;5.50;1.50;;;33.10;39.70;;;;;;4935863;29;20059;-84
2022/06/22 11:50:41;;;;;;;3.25;1.50;;;32.80;38.60;;;;;;4935646;29;20079;-77
2022/06/22 11:53:36;;;;;;;3.17;1.30;;;32.70;38.00;;;;;;4935844;29;20043;-76
2022/06/22 11:56:21;;;;;;;4.07;1.42;;;32.80;39.10;;;;;;4935651;29;20157;-79
2022/06/22 11:58:55;;;;;;;4.35;1.52;;;33.10;39.10;;;;;;4947687;29;20035;-82
2022/06/22 12:01:39;;;;;;;3.65;1.20;;;33.30;38.60;;;;;;4954427;29;20062;-78
2022/06/22 12:04:34;;;;;;;3.63;1.38;;;33.10;37.80;;;;;;4954848;29;20386;-81
2022/06/22 12:07:14;;;;;;;3.80;1.38;;;33.10;38.60;;;;;;4897699;29;20412;-80
2022/06/22 12:09:58;;;;;;;;;;;33.10;38.20;;;;;;4907988;29;20047;-80
2022/06/22 12:12:48;;;;;;;2.70;1.25;;;33.20;39.40;;;;;;4935749;29;19907;-77
2022/06/22 12:15:50;;;;;;;2.55;1.55;;;33.40;38.10;;;;;;4935681;29;20032;-78
2022/06/22 12:18:29;;;;;;;3.13;1.40;;;33.60;39.20;;;;;;4938394;29;20039;-78
2022/06/22 12:21:12;;;;;;;2.50;1.30;;;32.90;38.60;;;;;;4954393;29;20122;-81
2022/06/22 12:23:54;;;;;;;4.97;1.45;;;32.80;39.00;;;;;;4954189;29;20035;-81
2022/06/22 12:26:23;;;;;;;2.55;1.40;;;33.20;39.10;;;;;;4954622;29;20093;-77
2022/06/22 12:29:24;;;;;;;4.07;1.50;;;33.50;38.40;;;;;;4954323;29;20062;-82
2022/06/22 12:31:57;;;;;;;4.32;1.50;;;33.80;39.30;;;;;;4954023;29;20113;-79
2022/06/22 12:34:35;;;;;;;5.03;1.30;;;33.70;39.20;;;;;;4954412;28;20082;-81
2022/06/22 12:37:13;;;;;;;2.30;1.35;;;33.40;38.70;;;;;;4938131;29;20039;-82
2022/06/22 12:39:48;;;;;;;5.35;1.30;;;33.20;38.70;;;;;;4954359;29;20046;-77
2022/06/22 12:42:43;;;;;;;4.10;1.75;;;33.30;38.40;;;;;;4938077;29;20130;-81
2022/06/22 12:45:29;;;;;;;3.17;1.50;;;33.40;39.30;;;;;;5030767;28;20037;-79
2022/06/22 12:48:33;;;;;;;2.78;1.50;;;33.30;38.80;;;;;;5034257;28;20419;-79
2022/06/22 12:51:26;;;;;;;2.55;1.45;;;33.30;39.60;;;;;;5034448;28;20091;-79
2022/06/22 12:54:26;;;;;;;2.78;1.40;;;32.90;38.50;;;;;;5033884;28;20464;-77
2022/06/22 12:57:05;;;;;;;2.47;1.30;;;33.00;40.00;;;;;;5049415;28;20029;-78
2022/06/22 13:00:04;;;;;;;3.95;1.40;;;32.80;39.10;;;;;;5033441;28;20057;-77
2022/06/22 13:02:32;;;;;;;2.40;1.40;;;33.10;39.30;;;;;;5034806;28;20079;-81
2022/06/22 13:05:06;;;;;;;3.75;1.50;;;33.10;39.50;;;;;;5052128;28;20033;-77
2022/06/22 13:07:40;;;;;;;3.70;1.40;;;33.10;38.50;;;;;;5051582;28;20056;-79
2022/06/22 13:10:06;;;;;;;3.63;1.50;;;33.20;39.90;;;;;;5051751;28;20397;-86
2022/06/22 13:12:50;;;;;;;4.05;1.50;;;33.20;38.70;;;;;;5035084;28;20556;-77
2022/06/22 13:15:19;;;;;;;3.92;1.42;;;33.30;39.00;;;;;;5051487;28;20488;-85
2022/06/22 13:17:48;;;;;;;2.88;1.40;;;33.30;38.80;;;;;;5051342;28;20029;-83
2022/06/22 13:20:55;;;;;;;2.47;1.30;;;33.40;39.30;;;;;;5050890;28;20067;-78
2022/06/22 13:23:39;;;;;;;2.97;1.30;;;33.60;39.80;;;;;;5034878;28;20122;-79
2022/06/22 13:26:25;;;;;;;2.45;1.33;;;33.50;38.30;;;;;;5051319;28;20037;-78
2022/06/22 13:28:59;;;;;;;4.55;1.40;;;33.60;38.70;;;;;;5051784;28;20376;-77
2022/06/22 13:31:30;;;;;;;3.38;1.42;;;33.50;38.00;;;;;;5050478;28;20059;-77
2022/06/22 13:34:07;;;;;;;3.20;1.50;;;33.70;38.70;;;;;;5051610;28;20033;-76
2022/06/22 13:36:51;;;;;;;2.70;1.50;;;33.70;38.40;;;;;;5034410;28;20020;-78
2022/06/22 13:39:27;;;;;;;3.10;1.40;;;33.60;38.40;;;;;;5041489;28;20029;-83
2022/06/22 13:42:11;;;;;;;2.30;1.35;;;33.30;38.80;;;;;;5032235;28;20476;-86
2022/06/22 13:44:49;;;;;;;2.28;1.40;;;33.30;39.60;;;;;;5031699;28;20022;-79
2022/06/22 13:47:39;;;;;;;4.05;1.60;;;33.30;39.40;;;;;;5031875;28;20026;-79
2022/06/22 13:50:25;;;;;;;5.38;1.58;;;33.70;39.60;;;;;;5033083;28;20032;-77
2022/06/22 13:52:55;;;;;;;2.83;1.40;;;34.00;39.40;;;;;;5031659;28;20063;-82
2022/06/22 13:55:27;;;;;;;2.83;1.48;;;34.20;39.40;;;;;;5033367;28;20104;-78
2022/06/22 13:58:05;;;;;;;3.47;1.40;;;33.40;39.20;;;;;;5032388;28;20400;-79
2022/06/22 14:00:49;;;;;;;4.65;1.63;;;33.20;39.00;;;;;;5031548;28;20053;-79
2022/06/22 14:03:43;;;;;;;4.00;1.40;;;33.40;39.40;;;;;;5033002;28;20109;-79
2022/06/22 14:06:26;;;;;;;4.60;1.45;;;33.30;38.00;;;;;;5033153;28;20372;-81
2022/06/22 14:09:01;;;;;;;2.70;1.58;;;33.30;38.40;;;;;;5031809;28;20029;-78
2022/06/22 14:11:45;;;;;;;5.45;1.60;;;33.50;39.30;;;;;;5031847;28;20114;-78
2022/06/22 14:14:28;;;;;;;4.05;1.52;;;33.80;38.90;;;;;;5032835;28;20384;-82